createdAt,value
2018-06-01T00:00:00.790Z,1.60
2018-06-01T00:02:03.352Z,1.77
2018-06-01T00:04:05.912Z,1.90
2018-06-01T00:06:08.453Z,1.70
2018-06-01T00:08:11.026Z,1.80
2018-06-01T00:10:13.581Z,1.60
2018-06-01T00:12:16.164Z,1.53
2018-06-01T00:14:18.738Z,1.70
2018-06-01T00:16:21.561Z,1.60
2018-06-01T00:18:24.156Z,1.97
2018-06-01T00:20:26.699Z,1.70
2018-06-01T00:22:29.300Z,1.77
2018-06-01T00:24:31.851Z,1.40
2018-06-01T00:26:34.391Z,1.43
2018-06-01T00:28:36.984Z,1.50
2018-06-01T00:30:39.577Z,1.60
2018-06-01T00:32:42.201Z,1.70
2018-06-01T00:34:44.755Z,1.57
2018-06-01T00:36:47.318Z,1.43
2018-06-01T00:38:49.884Z,1.70
2018-06-01T00:40:52.436Z,1.60
2018-06-01T00:42:55.020Z,1.53
2018-06-01T00:44:57.583Z,1.43
2018-06-01T00:47:00.123Z,1.70
2018-06-01T00:49:04.185Z,1.80
2018-06-01T00:51:06.829Z,1.77
2018-06-01T00:53:10.168Z,1.37
2018-06-01T00:55:24.551Z,1.47
2018-06-01T00:57:27.136Z,1.50
2018-06-01T00:59:30.470Z,1.60
2018-06-01T01:01:33.016Z,1.67
2018-06-01T01:03:35.565Z,1.60
2018-06-01T01:05:38.144Z,1.73
2018-06-01T01:07:40.680Z,1.70
2018-06-01T01:09:43.233Z,1.37
2018-06-01T01:11:45.810Z,1.50
2018-06-01T01:13:48.365Z,1.93
2018-06-01T01:15:50.916Z,2.00
2018-06-01T01:17:54.267Z,1.73
2018-06-01T01:19:56.819Z,1.50
2018-06-01T01:21:59.359Z,1.57
2018-06-01T01:24:02.684Z,1.70
2018-06-01T01:26:05.253Z,1.83
2018-06-01T01:28:07.803Z,2.63
2018-06-01T01:30:10.351Z,1.70
2018-06-01T01:32:12.898Z,2.10
2018-06-01T01:34:15.461Z,2.00
2018-06-01T01:36:18.759Z,1.53
2018-06-01T01:38:21.304Z,1.60
2018-06-01T01:40:23.854Z,1.80
2018-06-01T01:42:27.168Z,1.90
2018-06-01T01:44:29.734Z,1.73
2018-06-01T01:46:32.263Z,2.03
2018-06-01T01:48:34.820Z,1.70
2018-06-01T01:50:37.388Z,1.70
2018-06-01T01:52:39.927Z,1.60
2018-06-01T01:54:42.520Z,1.70
2018-06-01T01:56:45.065Z,1.80
2018-06-01T01:58:47.620Z,1.67
2018-06-01T02:00:50.931Z,1.47
2018-06-01T02:02:53.584Z,1.37
2018-06-01T02:04:56.156Z,1.23
2018-06-01T02:06:59.459Z,1.03
2018-06-01T02:09:02.777Z,1.20
2018-06-01T02:11:05.319Z,1.40
2018-06-01T02:13:11.506Z,1.27
2018-06-01T02:15:14.075Z,1.20
2018-06-01T02:17:16.624Z,0.90
2018-06-01T02:19:19.958Z,1.10
2018-06-01T02:21:22.917Z,0.90
2018-06-01T02:23:25.514Z,0.80
2018-06-01T02:25:28.080Z,0.97
2018-06-01T02:27:30.628Z,1.00
2018-06-01T02:29:33.196Z,0.87
2018-06-01T02:31:36.497Z,1.10
2018-06-01T02:33:39.038Z,0.90
2018-06-01T02:35:41.604Z,0.70
2018-06-01T02:37:44.153Z,0.90
2018-06-01T02:39:46.716Z,0.90
2018-06-01T02:41:49.281Z,0.90
2018-06-01T02:43:51.817Z,0.93
2018-06-01T02:45:54.404Z,1.00
2018-06-01T02:47:57.722Z,0.90
2018-06-01T02:50:00.305Z,1.00
2018-06-01T02:52:02.899Z,1.00
2018-06-01T02:54:05.469Z,1.00
2018-06-01T02:56:08.033Z,0.90
2018-06-01T02:58:10.703Z,0.97
2018-06-01T03:00:13.288Z,0.80
2018-06-01T03:02:16.231Z,1.00
2018-06-01T03:04:18.814Z,0.97
2018-06-01T03:06:21.377Z,0.93
2018-06-01T03:08:24.696Z,0.97
2018-06-01T03:10:27.267Z,0.90
2018-06-01T03:12:29.812Z,1.30
2018-06-01T03:14:32.386Z,1.00
2018-06-01T03:16:34.925Z,0.97
2018-06-01T03:18:37.473Z,1.10
2018-06-01T03:20:40.087Z,0.90
2018-06-01T03:22:43.405Z,0.80
2018-06-01T03:24:45.991Z,1.00
2018-06-01T03:26:48.543Z,0.90
2018-06-01T03:28:51.859Z,0.80
2018-06-01T03:30:54.738Z,1.10
2018-06-01T03:32:57.280Z,1.07
2018-06-01T03:35:00.663Z,0.87
2018-06-01T03:37:03.979Z,1.00
2018-06-01T03:39:06.544Z,0.90
2018-06-01T03:41:09.949Z,1.00
2018-06-01T03:43:13.259Z,1.00
2018-06-01T03:45:15.832Z,1.10
2018-06-01T03:47:18.375Z,1.00
2018-06-01T03:49:20.913Z,0.90
2018-06-01T03:51:23.481Z,1.23
2018-06-01T03:53:26.012Z,1.20
2018-06-01T03:55:28.583Z,1.10
2018-06-01T03:57:31.147Z,1.40
2018-06-01T03:59:33.738Z,1.10
2018-06-01T04:01:36.345Z,1.13
2018-06-01T04:03:38.887Z,1.23
2018-06-01T04:05:41.470Z,1.60
2018-06-01T04:07:44.739Z,1.10
2018-06-01T04:09:47.295Z,1.27
2018-06-01T04:11:49.856Z,1.40
2018-06-01T04:13:53.187Z,1.10
2018-06-01T04:15:55.760Z,1.40
2018-06-01T04:17:58.391Z,1.40
2018-06-01T04:20:01.711Z,1.00
2018-06-01T04:22:04.246Z,1.20
2018-06-01T04:24:06.852Z,1.60
2018-06-01T04:26:10.183Z,1.43
2018-06-01T04:28:12.837Z,1.20
2018-06-01T04:30:16.299Z,1.40
2018-06-01T04:32:19.652Z,1.40
2018-06-01T04:34:22.249Z,1.40
2018-06-01T04:36:24.855Z,1.47
2018-06-01T04:38:27.430Z,1.43
2018-06-01T04:40:30.035Z,1.30
2018-06-01T04:42:32.548Z,1.27
2018-06-01T04:44:35.092Z,1.30
2018-06-01T04:46:37.724Z,1.20
2018-06-01T04:48:41.016Z,1.20
2018-06-01T04:50:43.633Z,1.03
2018-06-01T04:52:46.263Z,1.40
2018-06-01T04:54:49.578Z,1.40
2018-06-01T04:56:52.172Z,1.13
2018-06-01T04:58:54.767Z,1.50
2018-06-01T05:00:57.381Z,1.60
2018-06-01T05:02:59.955Z,1.40
2018-06-01T05:05:02.526Z,1.97
2018-06-01T05:07:05.076Z,2.07
2018-06-01T05:09:08.388Z,2.23
2018-06-01T05:11:10.966Z,2.03
2018-06-01T05:13:13.524Z,2.20
2018-06-01T05:15:16.844Z,2.10
2018-06-01T05:17:19.408Z,2.40
2018-06-01T05:19:21.979Z,2.30
2018-06-01T05:21:24.532Z,2.67
2018-06-01T05:23:27.880Z,2.70
2018-06-01T05:25:30.485Z,2.30
2018-06-01T05:27:33.029Z,2.57
2018-06-01T05:29:35.602Z,2.60
2018-06-01T05:31:38.215Z,2.17
2018-06-01T05:33:41.540Z,2.30
2018-06-01T05:35:44.216Z,2.93
2018-06-01T05:37:46.759Z,2.83
2018-06-01T05:39:50.083Z,2.90
2018-06-01T05:41:52.648Z,2.63
2018-06-01T05:43:55.187Z,2.77
2018-06-01T05:45:58.553Z,2.50
2018-06-01T05:48:01.103Z,2.47
2018-06-01T05:50:03.649Z,2.40
2018-06-01T05:52:06.197Z,2.47
2018-06-01T05:54:09.505Z,2.60
2018-06-01T05:56:12.131Z,2.53
2018-06-01T05:58:15.431Z,2.63
2018-06-01T06:00:18.076Z,2.67
2018-06-01T06:02:20.619Z,2.47
2018-06-01T06:04:23.172Z,2.63
2018-06-01T06:06:26.547Z,3.30
2018-06-01T06:08:29.088Z,2.70
2018-06-01T06:10:31.648Z,2.40
2018-06-01T06:12:34.307Z,2.47
2018-06-01T06:14:36.869Z,2.13
2018-06-01T06:16:40.203Z,2.10
2018-06-01T06:18:42.754Z,2.00
2018-06-01T06:20:45.319Z,2.23
2018-06-01T06:22:48.639Z,2.80
2018-06-01T06:24:51.200Z,2.10
2018-06-01T06:26:53.764Z,2.33
2018-06-01T06:28:56.312Z,2.30
2018-06-01T06:30:59.634Z,2.20
2018-06-01T06:33:02.201Z,2.40
2018-06-01T06:35:04.731Z,2.50
2018-06-01T06:37:07.302Z,2.10
2018-06-01T06:39:11.640Z,2.30
2018-06-01T06:41:14.974Z,2.30
2018-06-01T06:43:17.532Z,2.20
2018-06-01T06:45:20.202Z,2.30
2018-06-01T06:47:22.759Z,2.30
2018-06-01T06:49:26.096Z,2.50
2018-06-01T06:51:28.781Z,2.07
2018-06-01T06:53:31.335Z,2.50
2018-06-01T06:55:33.995Z,2.30
2018-06-01T06:57:36.585Z,2.37
2018-06-01T06:59:39.116Z,2.57
2018-06-01T07:01:42.535Z,2.50
2018-06-01T07:03:45.094Z,2.70
2018-06-01T07:05:48.395Z,2.83
2018-06-01T07:07:50.992Z,2.30
2018-06-01T07:09:53.554Z,2.90
2018-06-01T07:11:56.177Z,2.50
2018-06-01T07:13:58.725Z,2.43
2018-06-01T07:16:01.271Z,2.80
2018-06-01T07:18:03.845Z,2.43
2018-06-01T07:20:06.399Z,2.60
2018-06-01T07:22:09.733Z,2.63
2018-06-01T07:24:12.383Z,3.00
2018-06-01T07:26:14.955Z,2.80
2018-06-01T07:28:17.523Z,2.47
2018-06-01T07:30:20.078Z,2.67
2018-06-01T07:32:23.405Z,2.90
2018-06-01T07:34:25.969Z,2.97
2018-06-01T07:36:28.561Z,2.70
2018-06-01T07:38:31.179Z,2.93
2018-06-01T07:40:33.707Z,2.70
2018-06-01T07:42:36.375Z,3.17
2018-06-01T07:44:40.215Z,2.67
2018-06-01T07:46:42.755Z,2.80
2018-06-01T07:48:45.326Z,3.13
2018-06-01T07:50:47.915Z,2.90
2018-06-01T07:52:51.244Z,2.60
2018-06-01T07:54:53.849Z,2.97
2018-06-01T07:56:56.396Z,2.70
2018-06-01T07:58:59.735Z,3.40
2018-06-01T08:01:02.443Z,2.80
2018-06-01T08:03:05.012Z,3.00
2018-06-01T08:05:07.547Z,2.67
2018-06-01T08:07:10.207Z,2.83
2018-06-01T08:09:13.619Z,3.27
2018-06-01T08:11:16.116Z,3.23
2018-06-01T08:13:18.688Z,3.10
2018-06-01T08:15:21.244Z,3.20
2018-06-01T08:17:23.803Z,3.60
2018-06-01T08:19:26.377Z,3.20
2018-06-01T08:21:28.950Z,3.07
2018-06-01T08:23:31.561Z,3.83
2018-06-01T08:25:34.110Z,3.30
2018-06-01T08:27:36.784Z,3.13
2018-06-01T08:29:39.335Z,2.90
2018-06-01T08:31:41.876Z,3.03
2018-06-01T08:33:44.473Z,2.50
2018-06-01T08:35:47.828Z,2.90
2018-06-01T08:37:50.466Z,2.53
2018-06-01T08:39:53.043Z,4.67
2018-06-01T08:41:55.582Z,3.20
2018-06-01T08:43:58.206Z,2.70
2018-06-01T08:46:00.755Z,3.17
2018-06-01T08:48:03.323Z,2.60
2018-06-01T08:50:05.867Z,2.97
2018-06-01T08:52:09.187Z,2.80
2018-06-01T08:54:11.775Z,2.80
2018-06-01T08:56:14.333Z,3.23
2018-06-01T08:58:16.954Z,2.37
2018-06-01T09:00:19.476Z,2.40
2018-06-01T09:02:22.056Z,2.83
2018-06-01T09:04:24.650Z,2.90
2018-06-01T09:06:27.211Z,2.63
2018-06-01T09:08:30.658Z,2.50
2018-06-01T09:10:33.208Z,2.63
2018-06-01T09:12:35.755Z,2.73
2018-06-01T09:14:38.334Z,2.63
2018-06-01T09:16:40.934Z,2.83
2018-06-01T09:18:43.447Z,2.90
2018-06-01T09:20:46.762Z,3.27
2018-06-01T09:22:49.314Z,2.93
2018-06-01T09:24:52.755Z,2.47
2018-06-01T09:26:55.297Z,2.97
2018-06-01T09:28:57.848Z,2.37
2018-06-01T09:31:00.466Z,3.00
2018-06-01T09:33:03.035Z,2.70
2018-06-01T09:35:05.639Z,5.50
2018-06-01T09:37:08.183Z,2.60
2018-06-01T09:39:10.754Z,3.00
2018-06-01T09:41:13.302Z,3.07
2018-06-01T09:43:15.847Z,2.63
2018-06-01T09:45:18.416Z,3.03
2018-06-01T09:47:20.982Z,2.90
2018-06-01T09:49:23.569Z,3.30
2018-06-01T09:51:26.139Z,2.50
2018-06-01T09:53:28.705Z,2.63
2018-06-01T09:55:31.307Z,2.60
2018-06-01T09:57:33.836Z,2.50
2018-06-01T09:59:36.404Z,2.30
2018-06-01T10:01:38.960Z,2.60
2018-06-01T10:03:41.544Z,2.90
2018-06-01T10:05:44.090Z,2.80
2018-06-01T10:07:46.631Z,2.60
2018-06-01T10:09:55.519Z,2.50
2018-06-01T10:11:58.073Z,2.47
2018-06-01T10:14:00.638Z,2.70
2018-06-01T10:16:05.708Z,2.60
2018-06-01T10:18:08.742Z,2.57
2018-06-01T10:20:12.082Z,2.37
2018-06-01T10:22:14.620Z,2.93
2018-06-01T10:24:17.188Z,2.60
2018-06-01T10:26:19.731Z,2.87
2018-06-01T10:28:23.044Z,3.57
2018-06-01T10:30:25.621Z,3.47
2018-06-01T10:32:28.296Z,2.60
2018-06-01T10:34:30.848Z,2.73
2018-06-01T10:36:34.163Z,2.77
2018-06-01T10:38:36.699Z,2.57
2018-06-01T10:40:39.300Z,2.90
2018-06-01T10:42:42.695Z,2.90
2018-06-01T10:44:45.269Z,2.67
2018-06-01T10:46:47.840Z,2.40
2018-06-01T10:48:51.143Z,2.80
2018-06-01T10:50:53.716Z,2.70
2018-06-01T10:52:56.345Z,3.00
2018-06-01T10:54:58.923Z,2.78
2018-06-01T10:57:01.466Z,3.00
2018-06-01T10:59:04.058Z,3.00
2018-06-01T11:01:07.515Z,2.83
2018-06-01T11:03:10.060Z,2.57
2018-06-01T11:05:13.432Z,2.63
2018-06-01T11:07:15.977Z,2.53
2018-06-01T11:09:18.535Z,2.97
2018-06-01T11:11:21.252Z,2.83
2018-06-01T11:13:23.824Z,2.93
2018-06-01T11:15:26.394Z,2.73
2018-06-01T11:17:28.952Z,2.87
2018-06-01T11:19:31.507Z,2.50
2018-06-01T11:21:34.850Z,2.47
2018-06-01T11:23:38.215Z,2.53
2018-06-01T11:25:40.789Z,3.00
2018-06-01T11:27:43.332Z,3.00
2018-06-01T11:29:45.934Z,2.57
2018-06-01T11:31:48.485Z,2.70
2018-06-01T11:33:51.058Z,2.83
2018-06-01T11:35:53.648Z,3.03
2018-06-01T11:37:56.196Z,3.20
2018-06-01T11:39:58.845Z,2.80
2018-06-01T11:42:02.157Z,3.13
2018-06-01T11:44:04.742Z,3.20
2018-06-01T11:46:07.378Z,2.93
2018-06-01T11:48:09.880Z,2.90
2018-06-01T11:50:12.476Z,2.57
2018-06-01T11:52:15.026Z,2.60
2018-06-01T11:54:17.662Z,2.70
2018-06-01T11:56:20.240Z,2.87
2018-06-01T11:58:22.772Z,2.40
2018-06-01T12:00:25.323Z,2.57
2018-06-01T12:02:27.880Z,2.70
2018-06-01T12:04:30.453Z,2.63
2018-06-01T12:06:33.066Z,2.17
2018-06-01T12:08:35.620Z,2.60
2018-06-01T12:10:38.207Z,2.43
2018-06-01T12:12:40.767Z,2.63
2018-06-01T12:14:43.324Z,2.33
2018-06-01T12:16:45.914Z,2.60
2018-06-01T12:18:48.459Z,2.63
2018-06-01T12:20:51.813Z,2.40
2018-06-01T12:22:54.364Z,2.58
2018-06-01T12:24:57.693Z,2.12
2018-06-01T12:27:00.286Z,2.50
2018-06-01T12:29:03.620Z,2.43
2018-06-01T12:31:06.633Z,2.60
2018-06-01T12:33:09.199Z,2.60
2018-06-01T12:35:11.777Z,2.97
2018-06-01T12:37:14.376Z,2.40
2018-06-01T12:39:17.697Z,2.57
2018-06-01T12:41:20.251Z,2.57
2018-06-01T12:43:22.802Z,2.57
2018-06-01T12:45:25.383Z,2.43
2018-06-01T12:47:27.953Z,2.42
2018-06-01T12:49:30.504Z,2.50
2018-06-01T12:51:33.128Z,2.47
2018-06-01T12:53:35.674Z,2.57
2018-06-01T12:55:38.255Z,2.53
2018-06-01T12:57:41.578Z,2.53
2018-06-01T12:59:44.128Z,2.40
2018-06-01T13:01:47.460Z,2.37
2018-06-01T13:03:50.019Z,2.37
2018-06-01T13:05:52.588Z,2.30
2018-06-01T13:07:55.139Z,2.60
2018-06-01T13:09:57.695Z,2.47
2018-06-01T13:12:01.048Z,2.40
2018-06-01T13:14:03.589Z,2.67
2018-06-01T13:16:06.162Z,2.47
2018-06-01T13:18:08.763Z,2.70
2018-06-01T13:20:11.417Z,2.70
2018-06-01T13:22:13.992Z,2.20
2018-06-01T13:24:16.528Z,2.20
2018-06-01T13:26:19.180Z,2.35
2018-06-01T13:28:22.216Z,2.15
2018-06-01T13:30:24.772Z,2.40
2018-06-01T13:32:28.130Z,2.40
2018-06-01T13:34:30.728Z,2.60
2018-06-01T13:36:34.056Z,2.35
2018-06-01T13:38:36.679Z,2.20
2018-06-01T13:40:41.448Z,2.20
2018-06-01T13:42:44.011Z,2.60
2018-06-01T13:44:46.556Z,2.40
2018-06-01T13:46:49.322Z,2.20
2018-06-01T13:48:52.195Z,2.47
2018-06-01T13:50:54.751Z,2.50
2018-06-01T13:52:57.340Z,2.50
2018-06-01T13:54:59.880Z,2.40
2018-06-01T13:57:02.486Z,2.25
2018-06-01T13:59:05.114Z,2.50
2018-06-01T14:01:08.457Z,2.00
2018-06-01T14:03:11.101Z,2.22
2018-06-01T14:05:13.656Z,2.15
2018-06-01T14:07:16.213Z,2.60
2018-06-01T14:09:18.891Z,2.40
2018-06-01T14:11:21.406Z,2.83
2018-06-01T14:13:23.957Z,2.58
2018-06-01T14:15:26.618Z,2.30
2018-06-01T14:17:33.572Z,2.33
2018-06-01T14:19:36.369Z,2.10
2018-06-01T14:21:39.733Z,2.28
2018-06-01T14:23:42.280Z,2.22
2018-06-01T14:25:44.816Z,2.42
2018-06-01T14:27:47.403Z,2.53
2018-06-01T14:29:49.967Z,2.53
2018-06-01T14:31:52.589Z,2.37
2018-06-01T14:33:55.133Z,2.22
2018-06-01T14:35:57.695Z,2.40
2018-06-01T14:38:00.491Z,2.30
2018-06-01T14:40:03.109Z,2.40
2018-06-01T14:42:05.664Z,2.12
2018-06-01T14:44:08.211Z,2.92
2018-06-01T14:46:10.837Z,2.22
2018-06-01T14:48:14.187Z,2.50
2018-06-01T14:50:16.738Z,2.25
2018-06-01T14:52:19.300Z,2.35
2018-06-01T14:54:21.858Z,1.95
2018-06-01T14:56:24.412Z,2.28
2018-06-01T14:58:26.981Z,2.50
2018-06-01T15:00:29.533Z,2.53
2018-06-01T15:02:32.101Z,2.25
2018-06-01T15:04:34.685Z,2.35
2018-06-01T15:06:37.227Z,2.53
2018-06-01T15:08:39.821Z,2.40
2018-06-01T15:10:42.381Z,2.20
2018-06-01T15:12:44.978Z,2.10
2018-06-01T15:14:47.528Z,2.62
2018-06-01T15:16:50.131Z,2.20
2018-06-01T15:18:52.695Z,2.47
2018-06-01T15:20:55.251Z,2.70
2018-06-01T15:22:57.816Z,6.70
2018-06-01T15:25:00.373Z,2.75
2018-06-01T15:27:03.739Z,2.33
2018-06-01T15:29:06.296Z,2.67
2018-06-01T15:31:08.847Z,2.20
2018-06-01T15:33:11.417Z,2.22
2018-06-01T15:35:13.955Z,2.33
2018-06-01T15:37:16.499Z,2.30
2018-06-01T15:39:19.076Z,2.20
2018-06-01T15:41:21.634Z,2.33
2018-06-01T15:43:24.200Z,2.08
2018-06-01T15:45:26.803Z,2.10
2018-06-01T15:47:30.124Z,2.30
2018-06-01T15:49:32.683Z,2.70
2018-06-01T15:51:36.053Z,2.37
2018-06-01T15:53:38.628Z,4.93
2018-06-01T15:55:41.203Z,2.25
2018-06-01T15:57:43.792Z,2.50
2018-06-01T15:59:47.115Z,2.50
2018-06-01T16:01:49.676Z,2.83
2018-06-01T16:03:52.273Z,2.30
2018-06-01T16:05:54.824Z,2.37
2018-06-01T16:07:57.492Z,2.50
2018-06-01T16:10:00.044Z,2.10
2018-06-01T16:12:02.609Z,2.00
2018-06-01T16:14:05.268Z,2.40
2018-06-01T16:16:07.804Z,2.20
2018-06-01T16:18:10.439Z,1.98
2018-06-01T16:20:12.968Z,2.55
2018-06-01T16:22:15.756Z,2.40
2018-06-01T16:24:18.392Z,2.20
2018-06-01T16:26:21.702Z,2.72
2018-06-01T16:28:24.290Z,2.65
2018-06-01T16:30:26.873Z,2.40
2018-06-01T16:32:29.423Z,2.15
2018-06-01T16:34:32.002Z,2.20
2018-06-01T16:36:34.540Z,2.22
2018-06-01T16:38:37.935Z,2.30
2018-06-01T16:40:40.521Z,2.67
2018-06-01T16:42:43.053Z,2.35
2018-06-01T16:44:45.654Z,2.45
2018-06-01T16:46:48.986Z,2.45
2018-06-01T16:48:51.576Z,2.47
2018-06-01T16:50:54.207Z,2.25
2018-06-01T16:52:56.775Z,2.00
2018-06-01T16:54:59.346Z,2.30
2018-06-01T16:57:01.910Z,2.20
2018-06-01T16:59:05.231Z,2.10
2018-06-01T17:01:07.855Z,2.05
2018-06-01T17:03:10.431Z,2.62
2018-06-01T17:05:13.015Z,2.30
2018-06-01T17:07:16.401Z,2.05
2018-06-01T17:09:19.752Z,2.35
2018-06-01T17:11:22.315Z,2.35
2018-06-01T17:13:24.865Z,2.20
2018-06-01T17:15:27.501Z,2.20
2018-06-01T17:17:30.070Z,2.35
2018-06-01T17:19:32.623Z,2.65
2018-06-01T17:21:35.165Z,2.40
2018-06-01T17:23:37.740Z,1.83
2018-06-01T17:25:40.296Z,2.33
2018-06-01T17:27:43.625Z,2.37
2018-06-01T17:29:46.201Z,2.17
2018-06-01T17:31:48.761Z,2.47
2018-06-01T17:33:51.319Z,2.50
2018-06-01T17:35:54.683Z,2.62
2018-06-01T17:37:58.024Z,2.35
2018-06-01T17:40:00.605Z,2.40
2018-06-01T17:42:03.196Z,2.10
2018-06-01T17:44:05.757Z,2.25
2018-06-01T17:46:08.330Z,2.50
2018-06-01T17:48:10.914Z,2.57
2018-06-01T17:50:13.486Z,3.55
2018-06-01T17:52:16.065Z,2.80
2018-06-01T17:54:18.756Z,4.43
2018-06-01T17:56:21.338Z,3.50
2018-06-01T17:58:23.893Z,2.90
2018-06-01T18:00:26.464Z,2.70
2018-06-01T18:02:29.026Z,2.70
2018-06-01T18:04:31.616Z,2.53
2018-06-01T18:06:34.263Z,2.85
2018-06-01T18:08:41.835Z,2.60
2018-06-01T18:10:49.674Z,2.75
2018-06-01T18:12:55.708Z,2.80
2018-06-01T18:15:03.240Z,3.00
2018-06-01T18:17:08.616Z,5.53
2018-06-01T18:19:15.835Z,3.00
2018-06-01T18:21:21.245Z,2.70
2018-06-01T18:23:28.705Z,2.70
2018-06-01T18:25:38.667Z,3.00
2018-06-01T18:27:41.388Z,2.40
2018-06-01T18:29:44.280Z,2.90
2018-06-01T18:31:48.534Z,3.20
2018-06-01T18:33:55.390Z,2.60
2018-06-01T18:35:58.549Z,3.23
2018-06-01T18:38:01.601Z,2.93
2018-06-01T18:40:05.253Z,3.00
2018-06-01T18:42:09.009Z,3.03
2018-06-01T18:44:11.808Z,2.83
2018-06-01T18:46:17.075Z,3.13
2018-06-01T18:50:57.456Z,3.03
2018-06-01T18:53:00.154Z,2.50
2018-06-01T18:55:02.943Z,3.33
2018-06-01T18:57:05.559Z,3.30
2018-06-01T18:59:08.474Z,3.17
2018-06-01T19:01:11.752Z,3.40
2018-06-01T19:03:15.420Z,3.30
2018-06-01T19:05:19.363Z,3.47
2018-06-01T19:07:21.998Z,3.47
2018-06-01T19:09:24.730Z,3.37
2018-06-01T19:11:28.715Z,3.10
2018-06-01T19:13:31.275Z,3.20
2018-06-01T19:15:33.853Z,3.40
2018-06-01T19:17:36.405Z,3.30
2018-06-01T19:19:38.961Z,3.30
2018-06-01T19:21:41.548Z,3.30
2018-06-01T19:23:44.154Z,3.17
2018-06-01T19:25:46.667Z,3.23
2018-06-01T19:27:49.307Z,3.40
2018-06-01T19:29:52.609Z,3.40
2018-06-01T19:31:55.200Z,3.30
2018-06-01T19:33:57.768Z,3.07
2018-06-01T19:36:00.359Z,2.67
2018-06-01T19:38:02.917Z,2.77
2018-06-01T19:40:05.555Z,3.10
2018-06-01T19:42:08.160Z,3.00
2018-06-01T19:44:11.626Z,2.70
2018-06-01T19:46:14.209Z,3.00
2018-06-01T19:48:17.564Z,2.90
2018-06-01T19:50:20.168Z,3.00
2018-06-01T19:52:23.574Z,3.13
2018-06-01T19:54:26.896Z,2.93
2018-06-01T19:56:29.477Z,2.80
2018-06-01T19:58:32.128Z,2.90
2018-06-01T20:00:34.749Z,2.43
2018-06-01T20:02:37.349Z,2.67
2018-06-01T20:04:40.685Z,3.03
2018-06-01T20:06:43.262Z,2.60
2018-06-01T20:08:45.827Z,3.30
2018-06-01T20:10:48.417Z,2.93
2018-06-01T20:12:51.009Z,3.03
2018-06-01T20:14:53.598Z,3.90
2018-06-01T20:16:56.169Z,3.30
2018-06-01T20:18:58.722Z,3.63
2018-06-01T20:21:01.330Z,3.77
2018-06-01T20:23:03.903Z,3.27
2018-06-01T20:25:06.465Z,3.30
2018-06-01T20:27:09.075Z,3.77
2018-06-01T20:29:11.660Z,3.80
2018-06-01T20:31:14.227Z,4.00
2018-06-01T20:33:16.811Z,3.60
2018-06-01T20:35:19.396Z,3.53
2018-06-01T20:37:21.965Z,3.27
2018-06-01T20:39:24.716Z,2.70
2018-06-01T20:41:28.044Z,3.40
2018-06-01T20:43:30.639Z,3.20
2018-06-01T20:45:33.227Z,3.00
2018-06-01T20:47:35.761Z,3.10
2018-06-01T20:49:38.334Z,3.20
2018-06-01T20:51:40.983Z,3.40
2018-06-01T20:53:43.539Z,3.13
2018-06-01T20:55:46.854Z,3.20
2018-06-01T20:57:49.424Z,3.10
2018-06-01T20:59:51.993Z,3.43
2018-06-01T21:01:54.578Z,3.47
2018-06-01T21:03:57.142Z,3.63
2018-06-01T21:05:59.727Z,3.60
2018-06-01T21:08:02.320Z,3.90
2018-06-01T21:10:04.873Z,3.73
2018-06-01T21:12:07.478Z,3.03
2018-06-01T21:14:10.872Z,3.70
2018-06-01T21:16:14.189Z,3.40
2018-06-01T21:18:16.771Z,3.00
2018-06-01T21:20:19.332Z,3.33
2018-06-01T21:22:21.870Z,3.90
2018-06-01T21:24:24.433Z,3.37
2018-06-01T21:26:27.009Z,3.50
2018-06-01T21:28:29.635Z,3.50
2018-06-01T21:30:32.183Z,3.70
2018-06-01T21:32:34.790Z,3.90
2018-06-01T21:34:38.100Z,3.20
2018-06-01T21:36:40.698Z,3.47
2018-06-01T21:38:43.278Z,3.50
2018-06-01T21:40:45.838Z,3.80
2018-06-01T21:42:48.472Z,3.57
2018-06-01T21:44:51.807Z,3.83
2018-06-01T21:46:54.350Z,3.50
2018-06-01T21:48:57.688Z,3.47
2018-06-01T21:51:00.258Z,3.07
2018-06-01T21:53:02.832Z,3.50
2018-06-01T21:55:05.388Z,3.40
2018-06-01T21:57:07.935Z,3.87
2018-06-01T21:59:10.520Z,3.03
2018-06-01T22:01:13.076Z,3.23
2018-06-01T22:03:16.423Z,3.77
2018-06-01T22:05:18.969Z,3.33
2018-06-01T22:07:21.528Z,3.40
2018-06-01T22:09:24.115Z,3.70
2018-06-01T22:11:26.656Z,3.47
2018-06-01T22:13:30.034Z,3.70
2018-06-01T22:15:32.599Z,3.37
2018-06-01T22:17:35.142Z,3.80
2018-06-01T22:19:37.711Z,3.27
2018-06-01T22:21:40.258Z,3.30
2018-06-01T22:23:42.840Z,3.90
2018-06-01T22:25:45.486Z,4.10
2018-06-01T22:27:48.054Z,3.80
2018-06-01T22:29:50.641Z,4.27
2018-06-01T22:31:53.966Z,4.03
2018-06-01T22:33:56.541Z,4.53
2018-06-01T22:35:59.097Z,3.80
2018-06-01T22:38:01.653Z,4.07
2018-06-01T22:40:04.971Z,4.13
2018-06-01T22:42:07.574Z,3.73
2018-06-01T22:44:10.901Z,3.70
2018-06-01T22:46:14.257Z,3.90
2018-06-01T22:48:16.805Z,3.80
2018-06-01T22:50:19.366Z,3.60
2018-06-01T22:52:22.060Z,3.70
2018-06-01T22:54:24.635Z,3.93
2018-06-01T22:56:27.181Z,3.83
2018-06-01T22:58:29.778Z,4.57
2018-06-01T23:00:47.997Z,4.10
2018-06-01T23:02:51.316Z,4.43
2018-06-01T23:04:53.920Z,4.20
2018-06-01T23:06:56.474Z,4.70
2018-06-01T23:08:59.089Z,4.23
2018-06-01T23:11:01.639Z,3.93
2018-06-01T23:13:04.188Z,4.73
2018-06-01T23:15:06.857Z,4.67
2018-06-01T23:17:10.154Z,4.97
2018-06-01T23:19:12.708Z,4.53
2018-06-01T23:21:15.281Z,4.40
2018-06-01T23:23:17.845Z,4.63
2018-06-01T23:25:20.402Z,4.80
2018-06-01T23:27:23.712Z,4.67
2018-06-01T23:29:26.287Z,5.10
2018-06-01T23:31:28.815Z,4.77
2018-06-01T23:33:31.369Z,4.40
2018-06-01T23:35:33.939Z,4.10
2018-06-01T23:37:36.499Z,4.37
2018-06-01T23:39:39.057Z,4.47
2018-06-01T23:41:41.609Z,4.60
2018-06-01T23:43:44.932Z,4.57
2018-06-01T23:45:47.509Z,3.90
2018-06-01T23:47:50.063Z,3.60
2018-06-01T23:49:52.633Z,3.80
2018-06-01T23:51:55.187Z,3.93
2018-06-01T23:53:58.479Z,3.70
2018-06-01T23:56:01.811Z,3.67
2018-06-01T23:58:04.384Z,3.60
